Jasper, MO (64755)

9:12 PM CDT on August 02, 2015 (GMT -0500)
Sunshine Acres | | Change Station
CLOSE
Current Station
Personal Weather Station
Location: Carterville, MO
Elevation: 994 ft
Nearby Weather Stations

Elev 994 ft 37.16 °N, 94.44 °W | Updated 14 minutes ago

Clear
Clear
82.4 °F
Feels Like 84 °F
N
2.2
Wind Variable Wind from ESE

Today
High -- | Low -- °F
--% Chance of Precip.
Yesterday
High -- | Low -- °F
Precip. -- in
6:22 AM 8:24 PM
Waning Gibbous, 90% visible
Pressure 29.87 in
Visibility 10.0 miles
Clouds Clear
Heat Index 84 °F
Dew Point 66 °F
Humidity 57%
Rainfall 0.00 in
Snow Depth Not available.
UV 0 out of 12
Pollen 7.20 out of 12
Air Quality Not available.
Flu Activity Not available.
METAR KJLN 030153Z 20005KT 10SM CLR 26/18 A2990 RMK AO2 SLP113 T02610178

More Conditions Fewer Conditions

Pressure 29.87 in
Visibility 10.0 miles
Clouds Clear
Heat Index 84 °F
Dew Point 66 °F
Humidity 57%
Rainfall 0.00 in
Snow Depth Not available.
UV 0 out of 12
Pollen 7.20 out of 12
Air Quality Not available.
Flu Activity Not available.
METAR KJLN 030153Z 20005KT 10SM CLR 26/18 A2990 RMK AO2 SLP113 T02610178

More Conditions Fewer Conditions

10-Day Weather Forecast

×

Almanac

Astronomy

Aug. 02, 2015 Rise Set
Actual Time
Civil Twilight
Nautical Twilight
Astronomical Twilight
Moon
Length of Visible Light
Length of Day
Tomorrow will be .
, % of the Moon is Illuminated

Today's Extremes

State Highs State Lows

Community

WunderPhotos

Upload Photos

1,843,515 photos uploaded!

WunderBlogs® & News

Nearby

Air Quality

  Air Quality AQ Index Pollutant
Not available.

Snow Depth

Station Depth Elevation

Earthquake Activity

City Distance Mag. Time & Date
Minimum magnitude displayed is 2.5.

Coastal Water Temperatures

Place Temperature

Stations

Nearby Weather Stations

Station Location Temp. Windchill Dew Point Humidity Wind Precip. Elev Updated Type